createdAt,value
2023-02-27T00:02:26.567Z,20.65
2023-02-27T00:05:00.894Z,15.70
2023-02-27T00:07:34.554Z,18.35
2023-02-27T00:10:09.788Z,25.88
2023-02-27T00:12:53.013Z,24.00
2023-02-27T00:20:38.250Z,13.73
2023-02-27T00:23:11.743Z,20.30
2023-02-27T00:28:18.365Z,27.70
2023-02-27T00:30:51.832Z,22.27
2023-02-27T00:33:26.818Z,21.58
2023-02-27T00:36:02.701Z,24.30
2023-02-27T00:38:36.544Z,18.67
2023-02-27T00:41:09.769Z,28.98
2023-02-27T00:43:44.020Z,30.20
2023-02-27T00:46:17.246Z,22.48
2023-02-27T00:48:52.152Z,23.70
2023-02-27T00:51:25.873Z,17.10
2023-02-27T00:53:59.138Z,29.25
2023-02-27T00:56:32.932Z,22.83
2023-02-27T00:59:06.281Z,17.98
2023-02-27T01:01:40.101Z,26.70
2023-02-27T01:06:48.788Z,18.98
2023-02-27T01:09:22.404Z,32.88
2023-02-27T01:12:00.508Z,17.15
2023-02-27T01:17:07.832Z,16.85
2023-02-27T01:19:42.875Z,28.48
2023-02-27T01:22:17.428Z,26.60
2023-02-27T01:24:50.639Z,20.17
2023-02-27T01:27:23.998Z,32.42
2023-02-27T01:29:57.393Z,30.08
2023-02-27T01:32:30.745Z,29.50
2023-02-27T01:35:06.445Z,27.60
2023-02-27T01:37:40.304Z,20.17
2023-02-27T01:40:14.861Z,20.25
2023-02-27T01:42:48.157Z,25.77
2023-02-27T01:45:30.877Z,26.88
2023-02-27T01:48:11.951Z,22.50
2023-02-27T01:50:51.897Z,23.65
2023-02-27T01:53:27.207Z,24.08
2023-02-27T01:56:06.293Z,24.98
2023-02-27T01:58:40.759Z,32.50
2023-02-27T02:01:14.044Z,23.05
2023-02-27T02:06:25.140Z,27.98
2023-02-27T02:09:00.987Z,32.60
2023-02-27T02:11:34.767Z,25.60
2023-02-27T02:14:11.017Z,24.98
2023-02-27T02:16:56.253Z,24.50
2023-02-27T02:19:54.489Z,29.40
2023-02-27T02:23:06.951Z,28.25
2023-02-27T02:26:11.981Z,32.97
2023-02-27T02:29:12.947Z,24.95
2023-02-27T02:32:27.597Z,34.50
2023-02-27T02:35:45.806Z,26.55
2023-02-27T02:39:06.367Z,31.88
2023-02-27T02:41:54.557Z,41.13
2023-02-27T02:44:41.238Z,33.97
2023-02-27T02:47:23.704Z,29.20
2023-02-27T02:50:02.059Z,36.28
2023-02-27T02:52:45.299Z,26.25
2023-02-27T02:55:25.957Z,29.92
2023-02-27T02:58:05.567Z,39.85
2023-02-27T03:00:45.005Z,33.20
2023-02-27T03:03:26.345Z,37.90
2023-02-27T03:06:04.971Z,37.50
2023-02-27T03:08:44.904Z,41.03
2023-02-27T03:11:21.681Z,31.52
2023-02-27T03:14:00.112Z,33.70
2023-02-27T03:16:41.175Z,43.55
2023-02-27T03:19:19.357Z,42.85
2023-02-27T03:21:56.753Z,45.70
2023-02-27T03:24:34.893Z,48.95
2023-02-27T03:27:11.043Z,42.33
2023-02-27T03:29:50.806Z,33.90
2023-02-27T03:32:30.268Z,41.78
2023-02-27T03:35:05.127Z,42.08
2023-02-27T03:37:52.564Z,44.20
2023-02-27T03:40:30.485Z,42.08
2023-02-27T03:43:17.965Z,47.78
2023-02-27T03:45:58.090Z,50.65
2023-02-27T03:48:32.282Z,42.33
2023-02-27T03:51:06.578Z,30.50
2023-02-27T03:53:46.080Z,34.20
2023-02-27T03:56:25.264Z,55.05
2023-02-27T03:59:00.205Z,49.30
2023-02-27T04:01:33.761Z,47.80
2023-02-27T04:04:11.343Z,44.53
2023-02-27T04:07:07.677Z,44.33
2023-02-27T04:09:57.820Z,39.67
2023-02-27T04:12:57.864Z,46.20
2023-02-27T04:15:45.628Z,31.77
2023-02-27T04:18:31.562Z,53.17
2023-02-27T04:21:11.205Z,48.97
2023-02-27T04:23:55.888Z,34.88
2023-02-27T04:26:33.533Z,44.13
2023-02-27T04:29:12.826Z,37.58
2023-02-27T04:31:54.328Z,30.40
2023-02-27T04:34:34.481Z,65.05
2023-02-27T04:37:11.705Z,42.95
2023-02-27T04:39:51.955Z,37.60
2023-02-27T04:42:30.294Z,37.03
2023-02-27T04:45:07.342Z,54.22
2023-02-27T04:47:47.761Z,38.40
2023-02-27T04:50:36.372Z,39.75
2023-02-27T04:53:15.565Z,33.53
2023-02-27T04:55:51.980Z,39.08
2023-02-27T04:58:29.292Z,47.25
2023-02-27T05:01:06.437Z,41.90
2023-02-27T05:03:44.677Z,39.50
2023-02-27T05:06:23.106Z,33.08
2023-02-27T05:09:04.741Z,35.50
2023-02-27T05:11:45.486Z,40.20
2023-02-27T05:14:26.288Z,37.88
2023-02-27T05:17:08.098Z,35.08
2023-02-27T05:19:44.816Z,50.70
2023-02-27T05:22:29.442Z,44.78
2023-02-27T05:25:09.204Z,32.45
2023-02-27T05:27:47.326Z,40.75
2023-02-27T05:30:26.377Z,49.60
2023-02-27T05:33:07.026Z,51.80
2023-02-27T05:35:48.380Z,41.28
2023-02-27T05:38:26.851Z,31.60
2023-02-27T05:41:05.994Z,33.15
2023-02-27T05:43:43.977Z,30.30
2023-02-27T05:46:21.059Z,30.27
2023-02-27T05:48:58.239Z,29.35
2023-02-27T05:51:36.910Z,37.25
2023-02-27T05:54:17.681Z,29.17
2023-02-27T05:56:54.593Z,29.65
2023-02-27T05:59:33.739Z,37.78
2023-02-27T06:02:08.118Z,41.72
2023-02-27T06:07:16.806Z,31.37
2023-02-27T06:09:51.207Z,41.00
2023-02-27T06:12:25.840Z,44.00
2023-02-27T06:17:33.437Z,12.57
2023-02-27T06:20:08.295Z,14.43
2023-02-27T06:22:43.371Z,10.38
2023-02-27T06:25:16.800Z,12.80
2023-02-27T06:27:50.340Z,28.80
2023-02-27T06:30:24.032Z,13.90
2023-02-27T06:32:57.827Z,17.77
2023-02-27T06:35:31.258Z,13.90
2023-02-27T06:38:06.088Z,9.52
2023-02-27T06:40:39.269Z,3.72
2023-02-27T06:43:12.492Z,7.47
2023-02-27T06:45:45.882Z,10.55
2023-02-27T06:48:19.429Z,4.88
2023-02-27T06:50:53.772Z,6.15
2023-02-27T06:53:28.410Z,7.78
2023-02-27T06:56:01.660Z,17.33
2023-02-27T06:58:35.340Z,11.35
2023-02-27T07:01:08.988Z,10.02
2023-02-27T07:06:15.898Z,8.98
2023-02-27T07:09:02.244Z,12.32
2023-02-27T07:11:40.469Z,9.60
2023-02-27T07:14:16.670Z,5.57
2023-02-27T07:16:55.045Z,9.40
2023-02-27T07:19:28.361Z,10.05
2023-02-27T07:22:01.643Z,7.50
2023-02-27T07:24:36.624Z,5.03
2023-02-27T07:27:10.062Z,6.63
2023-02-27T07:29:43.516Z,9.30
2023-02-27T07:32:16.845Z,6.72
2023-02-27T07:34:50.305Z,8.45
2023-02-27T07:37:23.555Z,8.50
2023-02-27T07:39:58.295Z,5.97
2023-02-27T07:42:32.383Z,15.15
2023-02-27T07:45:06.729Z,13.27
2023-02-27T07:47:40.297Z,8.98
2023-02-27T07:50:15.021Z,9.35
2023-02-27T07:52:48.216Z,14.52
2023-02-27T07:55:23.112Z,11.15
2023-02-27T07:57:56.737Z,15.45
2023-02-27T08:00:30.448Z,7.03
2023-02-27T08:03:03.735Z,6.95
2023-02-27T08:05:37.583Z,8.68
2023-02-27T08:08:11.186Z,6.40
2023-02-27T08:10:45.985Z,9.77
2023-02-27T08:13:30.120Z,6.88
2023-02-27T08:16:10.754Z,13.23
2023-02-27T08:18:44.397Z,9.68
2023-02-27T08:21:17.753Z,16.58
2023-02-27T08:23:51.141Z,16.95
2023-02-27T08:29:00.272Z,19.30
2023-02-27T08:31:33.638Z,16.60
2023-02-27T08:34:10.585Z,26.02
2023-02-27T08:36:44.451Z,23.67
2023-02-27T08:41:53.931Z,32.47
2023-02-27T08:44:27.358Z,23.65
2023-02-27T08:47:00.624Z,31.48
2023-02-27T08:49:33.960Z,23.40
2023-02-27T08:52:09.433Z,45.70
2023-02-27T08:54:43.075Z,44.60
2023-02-27T08:57:18.093Z,45.08
2023-02-27T08:59:51.316Z,47.55
2023-02-27T09:02:26.396Z,31.40
2023-02-27T09:05:00.198Z,45.58
2023-02-27T09:10:09.106Z,32.47
2023-02-27T09:12:44.190Z,42.60
2023-02-27T09:15:18.171Z,32.50
2023-02-27T09:17:51.884Z,40.03
2023-02-27T09:20:25.621Z,46.65
2023-02-27T09:22:59.781Z,48.67
2023-02-27T09:25:33.632Z,53.75
2023-02-27T09:28:08.488Z,40.45
2023-02-27T09:30:41.727Z,49.25
2023-02-27T09:33:15.237Z,39.17
2023-02-27T09:35:48.647Z,31.92
2023-02-27T09:38:22.139Z,54.38
2023-02-27T09:40:59.527Z,43.72
2023-02-27T09:43:41.607Z,51.38
2023-02-27T09:46:19.955Z,39.55
2023-02-27T09:48:55.973Z,42.75
2023-02-27T09:51:31.097Z,45.28
2023-02-27T09:54:06.341Z,46.03
2023-02-27T09:56:47.063Z,46.05
2023-02-27T09:59:33.044Z,42.95
2023-02-27T10:02:22.199Z,46.80
2023-02-27T10:05:02.869Z,42.92
2023-02-27T10:07:42.816Z,45.47
2023-02-27T10:10:26.154Z,37.90
2023-02-27T10:13:17.981Z,45.28
2023-02-27T10:15:54.703Z,56.75
2023-02-27T10:18:32.344Z,35.72
2023-02-27T10:21:11.953Z,60.30
2023-02-27T10:23:56.509Z,57.67
2023-02-27T10:26:34.253Z,45.05
2023-02-27T10:29:19.051Z,51.08
2023-02-27T10:32:00.694Z,52.58
2023-02-27T10:34:35.751Z,34.35
2023-02-27T10:37:14.512Z,40.13
2023-02-27T10:39:51.064Z,40.78
2023-02-27T10:42:26.910Z,51.10
2023-02-27T10:45:01.256Z,33.83
2023-02-27T10:47:38.899Z,52.58
2023-02-27T10:50:24.403Z,47.28
2023-02-27T10:52:59.772Z,49.72
2023-02-27T10:55:35.951Z,56.13
2023-02-27T10:58:09.674Z,39.83
2023-02-27T11:00:55.299Z,48.08
2023-02-27T11:03:35.066Z,44.20
2023-02-27T11:06:13.419Z,41.80
2023-02-27T11:09:06.648Z,47.15
2023-02-27T11:11:41.264Z,34.20
2023-02-27T11:14:27.996Z,46.00
2023-02-27T11:17:03.800Z,49.13
2023-02-27T11:19:40.337Z,40.08
2023-02-27T11:22:18.646Z,41.78
2023-02-27T11:24:52.755Z,42.47
2023-02-27T11:27:28.972Z,43.45
2023-02-27T11:30:06.296Z,54.00
2023-02-27T11:32:44.433Z,42.15
2023-02-27T11:35:27.188Z,48.60
2023-02-27T11:38:02.558Z,49.30
2023-02-27T11:40:42.041Z,41.65
2023-02-27T11:43:20.081Z,36.45
2023-02-27T11:46:12.747Z,44.20
2023-02-27T11:48:52.258Z,38.22
2023-02-27T11:51:39.120Z,36.53
2023-02-27T11:54:22.923Z,34.03
2023-02-27T11:56:59.317Z,50.47
2023-02-27T11:59:43.309Z,53.42
2023-02-27T12:02:23.710Z,50.63
2023-02-27T12:05:00.836Z,43.13
2023-02-27T12:07:40.791Z,50.50
2023-02-27T12:10:19.734Z,52.80
2023-02-27T12:12:59.775Z,41.10
2023-02-27T12:15:44.161Z,42.55
2023-02-27T12:18:24.231Z,35.75
2023-02-27T12:21:02.569Z,48.40
2023-02-27T12:23:42.841Z,37.10
2023-02-27T12:26:25.215Z,40.25
2023-02-27T12:29:01.403Z,49.40
2023-02-27T12:31:46.190Z,43.33
2023-02-27T12:34:28.487Z,41.75
2023-02-27T12:37:04.849Z,36.53
2023-02-27T12:39:41.225Z,44.25
2023-02-27T12:42:46.576Z,47.75
2023-02-27T12:45:52.092Z,37.55
2023-02-27T12:48:55.670Z,30.67
2023-02-27T12:51:44.110Z,41.75
2023-02-27T12:54:27.860Z,45.60
2023-02-27T13:00:07.033Z,45.63
2023-02-27T13:02:51.491Z,46.25
2023-02-27T13:05:43.131Z,31.02
2023-02-27T13:08:38.215Z,31.48
2023-02-27T13:11:24.917Z,44.22
2023-02-27T13:14:03.061Z,40.45
2023-02-27T13:16:42.366Z,34.72
2023-02-27T13:19:20.887Z,30.98
2023-02-27T13:21:57.132Z,40.85
2023-02-27T13:24:32.400Z,38.80
2023-02-27T13:27:14.811Z,28.95
2023-02-27T13:30:02.314Z,35.63
2023-02-27T13:32:44.449Z,40.97
2023-02-27T13:35:25.144Z,33.03
2023-02-27T13:38:01.683Z,34.50
2023-02-27T13:40:38.697Z,37.47
2023-02-27T13:43:46.420Z,40.95
2023-02-27T13:46:27.643Z,39.20
2023-02-27T13:49:29.581Z,38.92
2023-02-27T13:52:04.132Z,30.95
2023-02-27T13:54:41.908Z,26.70
2023-02-27T13:57:27.125Z,31.95
2023-02-27T14:00:05.216Z,33.50
2023-02-27T14:02:59.462Z,37.00
2023-02-27T14:05:37.694Z,37.55
2023-02-27T14:08:17.309Z,33.63
2023-02-27T14:10:59.924Z,38.35
2023-02-27T14:14:00.719Z,25.30
2023-02-27T14:17:00.077Z,40.65
2023-02-27T14:19:59.618Z,38.47
2023-02-27T14:22:55.887Z,37.58
2023-02-27T14:25:34.507Z,39.40
2023-02-27T14:28:21.764Z,33.58
2023-02-27T14:30:59.564Z,39.50
2023-02-27T14:33:41.573Z,29.05
2023-02-27T14:36:21.413Z,30.55
2023-02-27T14:39:01.954Z,38.70
2023-02-27T14:41:45.017Z,32.40
2023-02-27T14:44:23.726Z,31.33
2023-02-27T14:46:58.528Z,29.13
2023-02-27T14:49:33.947Z,35.75
2023-02-27T14:52:20.786Z,32.58
2023-02-27T14:54:54.800Z,36.13
2023-02-27T14:57:28.225Z,38.30
2023-02-27T15:00:01.925Z,38.45
2023-02-27T15:02:38.246Z,38.92
2023-02-27T15:05:21.909Z,45.97
2023-02-27T15:07:56.844Z,40.90
2023-02-27T15:10:33.245Z,45.40
2023-02-27T15:13:08.234Z,38.15
2023-02-27T15:15:42.232Z,49.20
2023-02-27T15:18:16.404Z,48.28
2023-02-27T15:23:31.661Z,34.20
2023-02-27T15:26:05.721Z,35.33
2023-02-27T15:28:40.218Z,27.08
2023-02-27T15:31:20.770Z,53.58
2023-02-27T15:33:54.612Z,40.28
2023-02-27T15:36:30.889Z,48.33
2023-02-27T15:39:17.157Z,41.28
2023-02-27T15:41:53.602Z,45.70
2023-02-27T15:44:30.029Z,57.78
2023-02-27T15:47:03.674Z,39.30
2023-02-27T15:49:38.392Z,50.72
2023-02-27T15:52:17.846Z,41.03
2023-02-27T15:54:55.495Z,35.38
2023-02-27T15:57:30.674Z,51.28
2023-02-27T16:00:06.996Z,34.42
2023-02-27T16:02:44.384Z,29.88
2023-02-27T16:05:20.425Z,31.48
2023-02-27T16:07:55.022Z,52.60
2023-02-27T16:10:35.540Z,43.13
2023-02-27T16:13:23.209Z,30.45
2023-02-27T16:16:02.613Z,35.63
2023-02-27T16:18:48.183Z,44.75
2023-02-27T16:21:23.209Z,40.80
2023-02-27T16:24:16.558Z,35.78
2023-02-27T16:26:54.265Z,38.80
2023-02-27T16:29:33.667Z,40.35
2023-02-27T16:32:07.455Z,43.08
2023-02-27T16:34:45.844Z,28.40
2023-02-27T16:37:22.084Z,35.00
2023-02-27T16:39:55.395Z,36.35
2023-02-27T16:42:30.050Z,35.20
2023-02-27T16:45:03.764Z,33.90
2023-02-27T16:47:37.286Z,47.10
2023-02-27T16:50:16.495Z,33.45
2023-02-27T16:52:50.110Z,37.35
2023-02-27T16:55:23.505Z,42.25
2023-02-27T16:57:58.502Z,38.95
2023-02-27T17:00:34.118Z,32.78
2023-02-27T17:03:07.455Z,44.17
2023-02-27T17:05:41.348Z,52.13
2023-02-27T17:10:47.991Z,44.97
2023-02-27T17:13:24.056Z,52.45
2023-02-27T17:15:58.002Z,33.95
2023-02-27T17:18:31.420Z,31.83
2023-02-27T17:21:05.841Z,42.97
2023-02-27T17:23:39.399Z,35.58
2023-02-27T17:26:12.621Z,39.03
2023-02-27T17:28:47.729Z,33.38
2023-02-27T17:31:23.150Z,38.95
2023-02-27T17:33:57.043Z,45.17
2023-02-27T17:36:30.756Z,43.17
2023-02-27T17:39:04.167Z,37.28
2023-02-27T17:41:37.587Z,40.58
2023-02-27T17:44:12.773Z,46.67
2023-02-27T17:46:47.586Z,32.40
2023-02-27T17:49:20.846Z,39.70
2023-02-27T17:51:54.110Z,42.63
2023-02-27T17:54:27.875Z,37.80
2023-02-27T17:57:01.637Z,36.28
2023-02-27T17:59:37.313Z,22.67
2023-02-27T18:02:12.057Z,40.15
2023-02-27T18:04:45.353Z,35.22
2023-02-27T18:07:18.574Z,39.33
2023-02-27T18:09:51.760Z,38.20
2023-02-27T18:12:25.491Z,33.17
2023-02-27T18:15:00.311Z,26.67
2023-02-27T18:17:34.496Z,37.97
2023-02-27T18:20:10.198Z,28.50
2023-02-27T18:22:43.657Z,42.50
2023-02-27T18:25:16.920Z,36.60
2023-02-27T18:27:50.652Z,33.42
2023-02-27T18:30:25.778Z,41.25
2023-02-27T18:33:00.206Z,52.03
2023-02-27T18:35:33.857Z,44.13
2023-02-27T18:38:07.172Z,27.85
2023-02-27T18:40:40.423Z,40.38
2023-02-27T18:43:14.691Z,39.08
2023-02-27T18:45:49.685Z,37.65
2023-02-27T18:48:23.256Z,36.15
2023-02-27T18:51:01.229Z,46.97
2023-02-27T18:53:36.426Z,29.60
2023-02-27T18:56:11.839Z,33.45
2023-02-27T18:58:45.285Z,32.15
2023-02-27T19:01:26.440Z,39.25
2023-02-27T19:04:03.815Z,31.90
2023-02-27T19:06:40.960Z,26.88
2023-02-27T19:09:17.119Z,27.50
2023-02-27T19:11:51.495Z,34.28
2023-02-27T19:14:25.937Z,30.48
2023-02-27T19:17:01.676Z,34.20
2023-02-27T19:19:36.414Z,34.97
2023-02-27T19:22:10.033Z,36.47
2023-02-27T19:24:44.485Z,38.00
2023-02-27T19:27:18.292Z,32.35
2023-02-27T19:29:51.884Z,40.83
2023-02-27T19:32:26.940Z,26.85
2023-02-27T19:35:00.248Z,35.53
2023-02-27T19:37:34.029Z,32.90
2023-02-27T19:40:08.527Z,33.95
2023-02-27T19:42:42.289Z,32.35
2023-02-27T19:45:15.728Z,33.08
2023-02-27T19:47:50.830Z,31.73
2023-02-27T19:50:24.315Z,42.53
2023-02-27T19:52:57.783Z,40.33
2023-02-27T19:55:31.100Z,26.38
2023-02-27T19:58:05.289Z,24.13
2023-02-27T20:00:40.723Z,25.73
2023-02-27T20:03:15.591Z,27.35
2023-02-27T20:05:49.145Z,29.17
2023-02-27T20:08:23.236Z,24.63
2023-02-27T20:10:57.335Z,26.35
2023-02-27T20:13:31.819Z,24.85
2023-02-27T20:16:08.504Z,32.35
2023-02-27T20:18:43.911Z,30.92
2023-02-27T20:21:20.348Z,30.73
2023-02-27T20:23:54.040Z,27.73
2023-02-27T20:26:30.796Z,27.92
2023-02-27T20:29:06.814Z,27.73
2023-02-27T20:31:41.801Z,22.02
2023-02-27T20:34:21.942Z,29.73
2023-02-27T20:36:56.430Z,31.58
2023-02-27T20:39:30.448Z,28.58
2023-02-27T20:42:04.514Z,28.25
2023-02-27T20:44:38.039Z,27.17
2023-02-27T20:47:11.468Z,34.10
2023-02-27T20:49:46.348Z,34.80
2023-02-27T20:52:19.662Z,30.50
2023-02-27T20:54:53.588Z,26.98
2023-02-27T21:00:00.284Z,34.67
2023-02-27T21:02:33.619Z,32.42
2023-02-27T21:05:09.007Z,33.55
2023-02-27T21:07:42.175Z,36.42
2023-02-27T21:10:15.738Z,30.40
2023-02-27T21:12:53.301Z,29.48
2023-02-27T21:15:27.192Z,29.45
2023-02-27T21:18:00.833Z,31.13
2023-02-27T21:20:35.636Z,29.30
2023-02-27T21:23:08.897Z,33.05
2023-02-27T21:25:43.797Z,29.10
2023-02-27T21:28:17.364Z,34.33
2023-02-27T21:30:54.320Z,34.95
2023-02-27T21:33:28.165Z,34.17
2023-02-27T21:36:02.974Z,30.55
2023-02-27T21:38:36.615Z,29.85
2023-02-27T21:41:12.655Z,32.97
2023-02-27T21:43:46.522Z,21.45
2023-02-27T21:46:20.842Z,33.63
2023-02-27T21:48:54.088Z,40.92
2023-02-27T21:51:39.903Z,38.80
2023-02-27T21:54:14.771Z,38.13
2023-02-27T21:56:49.380Z,25.20
2023-02-27T21:59:22.624Z,26.23
2023-02-27T22:01:56.288Z,34.45
2023-02-27T22:04:29.631Z,33.25
2023-02-27T22:07:04.447Z,33.83
2023-02-27T22:09:37.974Z,28.40
2023-02-27T22:14:45.285Z,37.92
2023-02-27T22:17:18.621Z,55.60
2023-02-27T22:19:52.900Z,35.65
2023-02-27T22:22:27.752Z,30.83
2023-02-27T22:25:01.306Z,37.33
2023-02-27T22:27:34.801Z,35.17
2023-02-27T22:30:09.308Z,41.92
2023-02-27T22:32:42.588Z,34.03
2023-02-27T22:35:16.462Z,44.05
2023-02-27T22:40:24.915Z,34.80
2023-02-27T22:42:58.473Z,33.15
2023-02-27T22:45:31.928Z,36.22
2023-02-27T22:48:05.616Z,34.08
2023-02-27T22:50:38.972Z,41.38
2023-02-27T22:53:14.043Z,41.80
2023-02-27T22:55:54.308Z,32.95
2023-02-27T22:58:29.644Z,35.97
2023-02-27T23:01:02.941Z,40.40
2023-02-27T23:03:36.224Z,47.08
2023-02-27T23:06:12.148Z,45.85
2023-02-27T23:08:47.365Z,38.00
2023-02-27T23:11:22.076Z,43.05
2023-02-27T23:13:56.640Z,37.72
2023-02-27T23:16:30.884Z,36.53
2023-02-27T23:19:05.540Z,58.33
2023-02-27T23:21:40.151Z,67.78
2023-02-27T23:24:17.767Z,68.05
2023-02-27T23:26:53.041Z,47.28
2023-02-27T23:29:26.328Z,37.30
2023-02-27T23:31:59.776Z,39.25
2023-02-27T23:34:47.474Z,41.42
2023-02-27T23:37:23.103Z,37.55
2023-02-27T23:39:57.913Z,44.85
2023-02-27T23:42:48.618Z,49.70
2023-02-27T23:45:25.001Z,37.10
2023-02-27T23:48:00.279Z,43.28
2023-02-27T23:50:35.720Z,48.67
2023-02-27T23:53:10.419Z,39.88
2023-02-27T23:55:45.375Z,49.90
2023-02-27T23:58:18.927Z,47.95
